Time;durP1;ratioP1;P1;durP2;ratioP2;P2;SDS_P1;SDS_P2;PMS_P1;PMS_P2;Temp;Humidity;BMP_temperature;BMP_pressure;BME280_temperature;BME280_humidity;BME280_pressure;Samples;Min_cycle;Max_cycle;Signal;HPM_P1;HPM_P2
2022/02/14 00:01:03;;;;;;;1.02;0.95;;;;;;;;;;7323207;19;154370;-14
2022/02/14 00:03:35;;;;;;;1.20;1.08;;;;;;;;;;7328058;19;153807;-20
2022/02/14 00:06:06;;;;;;;1.58;1.02;;;;;;;;;;7331721;19;161834;-14
2022/02/14 00:08:38;;;;;;;1.15;0.95;;;;;;;;;;7326738;19;162535;-15
2022/02/14 00:11:12;;;;;;;6.07;1.30;;;;;;;;;;7330135;19;154159;-14
2022/02/14 00:13:43;;;;;;;1.27;1.08;;;;;;;;;;7326551;19;153642;-14
2022/02/14 00:16:15;;;;;;;1.52;1.20;;;;;;;;;;7328635;19;161842;-14
2022/02/14 00:18:46;;;;;;;1.75;0.98;;;;;;;;;;7329765;19;162307;-15
2022/02/14 00:21:17;;;;;;;1.67;1.20;;;;;;;;;;7329829;19;153971;-14
2022/02/14 00:23:49;;;;;;;2.35;1.10;;;;;;;;;;7329998;19;153631;-14
2022/02/14 13:30:35;;;;;;;0.95;0.80;;;;;;;;;;7368350;19;132789;-18
2022/02/14 13:33:23;;;;;;;1.00;0.82;;;;;;;;;;7364655;19;153798;-15
2022/02/14 13:36:02;;;;;;;1.80;1.20;;;;;;;;;;7364558;19;161831;-16
2022/02/14 13:38:38;;;;;;;0.63;0.63;;;;;;;;;;7363327;19;162644;-15
2022/02/14 13:41:11;;;;;;;1.08;0.98;;;;;;;;;;7364251;19;153877;-16
2022/02/14 13:43:44;;;;;;;1.48;0.80;;;;;;;;;;7364201;19;153466;-16
2022/02/14 13:46:27;;;;;;;1.08;0.80;;;;;;;;;;7363892;19;161818;-15
2022/02/14 13:48:59;;;;;;;1.75;1.10;;;;;;;;;;7364247;19;162331;-16
2022/02/14 13:51:34;;;;;;;1.02;0.65;;;;;;;;;;7364396;19;153921;-16
2022/02/14 13:54:07;;;;;;;1.02;0.90;;;;;;;;;;7364286;19;153685;-15
2022/02/14 13:56:45;;;;;;;0.98;0.88;;;;;;;;;;7364281;19;162021;-15
2022/02/14 13:59:18;;;;;;;1.02;0.90;;;;;;;;;;7361457;19;162412;-16
2022/02/14 14:01:54;;;;;;;1.17;0.95;;;;;;;;;;7364384;19;153985;-15
2022/02/14 14:04:28;;;;;;;0.82;0.77;;;;;;;;;;7364262;19;153618;-16
2022/02/14 14:07:11;;;;;;;0.85;0.82;;;;;;;;;;7364303;19;161964;-15
2022/02/14 14:09:49;;;;;;;1.55;1.13;;;;;;;;;;7366399;19;162633;-15
2022/02/14 14:12:22;;;;;;;1.83;0.70;;;;;;;;;;7364795;19;153882;-15
2022/02/14 14:14:57;;;;;;;1.03;0.80;;;;;;;;;;7364388;19;153539;-15
2022/02/14 14:17:31;;;;;;;1.20;1.10;;;;;;;;;;7363712;19;161999;-19
2022/02/14 14:20:04;;;;;;;1.77;1.10;;;;;;;;;;7360199;19;162555;-14
2022/02/14 14:22:36;;;;;;;2.63;0.87;;;;;;;;;;7366439;19;153919;-15
2022/02/14 14:25:10;;;;;;;3.10;1.40;;;;;;;;;;7363404;19;153561;-15
2022/02/14 14:27:43;;;;;;;1.60;1.27;;;;;;;;;;7362968;19;161953;-14
2022/02/14 14:30:16;;;;;;;3.50;1.10;;;;;;;;;;7345039;19;162493;-15
2022/02/14 14:32:50;;;;;;;2.13;0.90;;;;;;;;;;7334782;19;154102;-16
2022/02/14 14:35:22;;;;;;;2.63;0.90;;;;;;;;;;7335397;19;153939;-16
2022/02/14 14:37:53;;;;;;;2.47;0.90;;;;;;;;;;7333967;19;161941;-16
2022/02/14 14:40:25;;;;;;;1.10;1.00;;;;;;;;;;7332332;19;162791;-15
2022/02/14 14:42:56;;;;;;;2.45;1.15;;;;;;;;;;7333596;19;153944;-15
2022/02/14 14:45:27;;;;;;;0.80;0.80;;;;;;;;;;7334536;19;153545;-16
2022/02/14 14:48:01;;;;;;;2.33;1.13;;;;;;;;;;7333914;19;161760;-15
2022/02/14 14:50:33;;;;;;;2.63;1.15;;;;;;;;;;7333948;19;162325;-16
2022/02/14 14:53:05;;;;;;;1.08;1.00;;;;;;;;;;7334308;19;153912;-15
2022/02/14 14:55:37;;;;;;;2.93;1.13;;;;;;;;;;7334149;19;154040;-15
2022/02/14 14:58:09;;;;;;;1.10;1.00;;;;;;;;;;7333402;19;161707;-16
2022/02/14 15:00:40;;;;;;;8.60;1.20;;;;;;;;;;7331739;19;162476;-15
2022/02/14 15:03:15;;;;;;;2.38;0.75;;;;;;;;;;7334142;19;154012;-14
2022/02/14 15:05:46;;;;;;;1.05;0.70;;;;;;;;;;7333672;19;153595;-15
2022/02/14 15:08:18;;;;;;;1.92;1.25;;;;;;;;;;7333384;19;161726;-15
2022/02/14 15:10:49;;;;;;;3.90;1.20;;;;;;;;;;7333334;19;162347;-15
2022/02/14 15:13:21;;;;;;;2.65;1.30;;;;;;;;;;7333287;19;153981;-16
2022/02/14 15:15:52;;;;;;;4.35;1.10;;;;;;;;;;7333761;19;153579;-16
2022/02/14 15:18:26;;;;;;;3.22;1.15;;;;;;;;;;7333118;19;162009;-15
2022/02/14 15:20:59;;;;;;;1.75;1.10;;;;;;;;;;7330467;19;162433;-15
2022/02/14 15:23:30;;;;;;;2.60;1.20;;;;;;;;;;7333105;19;154101;-15
2022/02/14 15:26:03;;;;;;;1.10;0.80;;;;;;;;;;7333178;19;153510;-14
2022/02/14 15:28:34;;;;;;;2.17;0.82;;;;;;;;;;7331894;19;162098;-14
2022/02/14 15:31:06;;;;;;;1.70;1.00;;;;;;;;;;7332724;19;162697;-14
2022/02/14 15:33:40;;;;;;;3.30;1.10;;;;;;;;;;7331422;19;154138;-16
2022/02/14 15:36:12;;;;;;;1.95;1.23;;;;;;;;;;7331409;19;153556;-16
2022/02/14 15:38:43;;;;;;;2.23;1.03;;;;;;;;;;7332329;19;162088;-15
2022/02/14 15:41:16;;;;;;;1.27;1.10;;;;;;;;;;7327882;19;162394;-15
2022/02/14 15:43:49;;;;;;;3.42;1.38;;;;;;;;;;7332284;19;153931;-15
2022/02/14 15:46:20;;;;;;;1.45;0.80;;;;;;;;;;7332042;19;153543;-14
2022/02/14 15:48:54;;;;;;;1.20;1.10;;;;;;;;;;7331824;19;162061;-19
2022/02/14 15:51:28;;;;;;;3.35;1.25;;;;;;;;;;7331908;19;162598;-13
2022/02/14 15:53:59;;;;;;;2.08;1.20;;;;;;;;;;7331805;19;153925;-23
2022/02/14 15:56:31;;;;;;;1.88;1.00;;;;;;;;;;7332100;19;153537;-15
2022/02/14 15:59:02;;;;;;;2.95;1.33;;;;;;;;;;7331797;19;161792;-15
2022/02/14 16:01:33;;;;;;;2.13;1.30;;;;;;;;;;7329190;19;162482;-14
2022/02/14 16:04:08;;;;;;;1.70;0.93;;;;;;;;;;7331913;19;153935;-14
2022/02/14 16:06:41;;;;;;;2.53;1.33;;;;;;;;;;7331960;19;153522;-14
2022/02/14 16:09:13;;;;;;;2.17;1.17;;;;;;;;;;7330024;19;161867;-15
2022/02/14 16:11:45;;;;;;;2.83;1.20;;;;;;;;;;7331545;19;162365;-15
2022/02/14 16:14:18;;;;;;;1.98;1.15;;;;;;;;;;7331638;19;153980;-16
2022/02/14 16:16:51;;;;;;;1.63;0.93;;;;;;;;;;7331342;19;153766;-15
2022/02/14 16:19:25;;;;;;;1.58;1.10;;;;;;;;;;7330919;19;161974;-15
2022/02/14 16:21:58;;;;;;;3.25;1.33;;;;;;;;;;7328188;19;162327;-14
2022/02/14 16:24:29;;;;;;;2.55;1.40;;;;;;;;;;7331268;19;153937;-14
2022/02/14 16:27:02;;;;;;;3.80;1.63;;;;;;;;;;7331052;19;153856;-14
2022/02/14 16:29:33;;;;;;;2.22;1.02;;;;;;;;;;7328875;19;161818;-15
2022/02/14 16:32:05;;;;;;;2.47;1.20;;;;;;;;;;7330739;19;162395;-14
2022/02/14 16:34:40;;;;;;;2.92;1.20;;;;;;;;;;7330935;19;154216;-14
2022/02/14 16:37:11;;;;;;;2.45;1.30;;;;;;;;;;7330921;19;153489;-15
2022/02/14 16:39:42;;;;;;;2.60;1.00;;;;;;;;;;7330363;19;161818;-15
2022/02/14 16:42:15;;;;;;;2.30;1.23;;;;;;;;;;7330123;19;162587;-20
2022/02/14 16:44:46;;;;;;;4.50;1.33;;;;;;;;;;7330511;19;153889;-15
2022/02/14 16:47:18;;;;;;;4.00;1.35;;;;;;;;;;7330211;19;153632;-15
2022/02/14 16:49:54;;;;;;;1.10;0.95;;;;;;;;;;7330001;19;161579;-15
2022/02/14 16:52:27;;;;;;;3.22;1.35;;;;;;;;;;7329398;19;162597;-15
2022/02/14 16:54:59;;;;;;;2.23;1.67;;;;;;;;;;7330242;19;154088;-15
2022/02/14 16:57:31;;;;;;;3.13;1.10;;;;;;;;;;7330388;19;153551;-15
2022/02/14 17:00:03;;;;;;;1.37;1.27;;;;;;;;;;7329376;19;161795;-14
2022/02/14 17:02:34;;;;;;;2.35;1.02;;;;;;;;;;7329456;19;162337;-15
2022/02/14 17:05:09;;;;;;;1.30;1.15;;;;;;;;;;7329633;19;154175;-15
2022/02/14 17:07:40;;;;;;;2.72;1.20;;;;;;;;;;7329527;19;153474;-16
2022/02/14 17:10:13;;;;;;;1.70;1.27;;;;;;;;;;7329047;19;161989;-15
2022/02/14 17:12:45;;;;;;;1.10;1.00;;;;;;;;;;7328903;19;162493;-16
2022/02/14 17:15:17;;;;;;;1.20;1.02;;;;;;;;;;7329182;19;153968;-16
2022/02/14 17:17:48;;;;;;;2.53;1.30;;;;;;;;;;7327777;19;153643;-15
2022/02/14 17:20:22;;;;;;;2.70;1.48;;;;;;;;;;7328605;19;161957;-15
2022/02/14 17:22:55;;;;;;;3.40;1.48;;;;;;;;;;7328848;19;162355;-15
2022/02/14 17:25:28;;;;;;;2.17;1.45;;;;;;;;;;7329180;19;154177;-15
2022/02/14 17:27:59;;;;;;;3.50;1.40;;;;;;;;;;7328868;19;153746;-14
2022/02/14 17:30:31;;;;;;;2.08;1.23;;;;;;;;;;7325595;19;162036;-15
2022/02/14 17:33:02;;;;;;;1.63;0.90;;;;;;;;;;7328849;19;162663;-15
2022/02/14 17:35:36;;;;;;;1.98;1.38;;;;;;;;;;7328713;19;153994;-15
2022/02/14 17:38:07;;;;;;;1.60;1.25;;;;;;;;;;7329056;19;153497;-15
2022/02/14 17:40:39;;;;;;;2.38;1.50;;;;;;;;;;7328260;19;162097;-15
2022/02/14 17:43:11;;;;;;;2.35;1.33;;;;;;;;;;7328381;19;162505;-15
2022/02/14 17:45:43;;;;;;;3.33;1.48;;;;;;;;;;7329064;19;154706;-14
2022/02/14 17:48:14;;;;;;;3.30;1.30;;;;;;;;;;7328619;19;153481;-16
2022/02/14 17:50:48;;;;;;;2.83;1.20;;;;;;;;;;7328191;19;161984;-15
2022/02/14 17:53:19;;;;;;;2.67;1.17;;;;;;;;;;7328129;19;162611;-14
2022/02/14 17:55:50;;;;;;;3.35;1.27;;;;;;;;;;7328547;19;153954;-14
2022/02/14 17:58:22;;;;;;;1.80;1.20;;;;;;;;;;7327581;19;153611;-15
2022/02/14 18:00:54;;;;;;;3.55;1.45;;;;;;;;;;7327037;19;162079;-14
2022/02/14 18:03:25;;;;;;;4.33;1.60;;;;;;;;;;7328554;19;162313;-15
2022/02/14 18:05:59;;;;;;;3.20;1.67;;;;;;;;;;7332606;19;153950;-14
2022/02/14 18:08:31;;;;;;;2.90;1.60;;;;;;;;;;7335186;19;153999;-15
2022/02/14 18:11:03;;;;;;;1.42;0.95;;;;;;;;;;7334767;19;161816;-15
2022/02/14 18:13:34;;;;;;;2.63;1.45;;;;;;;;;;7334692;19;162307;-14
2022/02/14 18:16:07;;;;;;;2.47;1.10;;;;;;;;;;7334778;19;153957;-15
2022/02/14 18:18:38;;;;;;;3.13;1.15;;;;;;;;;;7335148;19;153480;-15
2022/02/14 18:21:12;;;;;;;2.65;1.77;;;;;;;;;;7334423;19;161856;-14
2022/02/14 18:23:43;;;;;;;2.47;1.27;;;;;;;;;;7334714;19;162388;-14
2022/02/14 18:26:15;;;;;;;1.92;1.33;;;;;;;;;;7334946;19;153957;-15
2022/02/14 18:28:48;;;;;;;2.58;1.50;;;;;;;;;;7332653;19;153516;-15
2022/02/14 18:31:20;;;;;;;2.90;1.52;;;;;;;;;;7333303;19;161601;-14
2022/02/14 18:33:53;;;;;;;2.58;1.10;;;;;;;;;;7334168;19;162381;-15
2022/02/14 18:36:27;;;;;;;1.45;1.10;;;;;;;;;;7334326;19;154124;-15
2022/02/14 18:39:00;;;;;;;2.25;1.27;;;;;;;;;;7333081;19;153610;-15
2022/02/14 18:41:52;;;;;;;1.85;1.30;;;;;;;;;;7333373;19;161831;-15
2022/02/14 18:44:23;;;;;;;4.00;1.50;;;;;;;;;;7334007;19;162400;-15
2022/02/14 18:46:54;;;;;;;3.05;1.40;;;;;;;;;;7334194;19;154663;-16
2022/02/14 18:49:27;;;;;;;1.85;1.20;;;;;;;;;;7334049;19;153503;-14
2022/02/14 18:52:01;;;;;;;1.95;1.40;;;;;;;;;;7333475;19;161803;-14
2022/02/14 18:54:33;;;;;;;2.92;1.65;;;;;;;;;;7333089;19;162386;-15
2022/02/14 18:57:05;;;;;;;3.70;1.52;;;;;;;;;;7333477;19;153987;-15
2022/02/14 18:59:36;;;;;;;2.95;1.30;;;;;;;;;;7333272;19;153604;-15
2022/02/14 19:02:08;;;;;;;3.20;1.65;;;;;;;;;;7332033;19;161894;-14
2022/02/14 19:04:39;;;;;;;2.03;1.33;;;;;;;;;;7332014;19;162707;-15
2022/02/14 19:07:13;;;;;;;1.88;1.30;;;;;;;;;;7333282;19;153786;-15
2022/02/14 19:09:45;;;;;;;4.85;1.90;;;;;;;;;;7332188;19;153626;-15
2022/02/14 19:12:16;;;;;;;3.38;1.45;;;;;;;;;;7333069;19;161865;-14
2022/02/14 19:14:48;;;;;;;2.30;1.75;;;;;;;;;;7327858;19;162352;-14
2022/02/14 19:17:21;;;;;;;2.90;1.80;;;;;;;;;;7330420;19;153950;-14
2022/02/14 19:19:52;;;;;;;3.90;1.92;;;;;;;;;;7332014;19;153563;-14
2022/02/14 19:22:26;;;;;;;4.00;1.52;;;;;;;;;;7330344;19;161858;-15
2022/02/14 19:24:58;;;;;;;3.35;1.40;;;;;;;;;;7332093;19;162386;-15
2022/02/14 19:27:31;;;;;;;2.78;1.50;;;;;;;;;;7332684;19;154007;-15
2022/02/14 19:30:02;;;;;;;3.67;1.90;;;;;;;;;;7330517;19;153671;-16
2022/02/14 19:32:33;;;;;;;4.10;1.92;;;;;;;;;;7331796;19;162059;-16
2022/02/14 19:35:11;;;;;;;5.00;1.60;;;;;;;;;;7332180;19;162584;-15
2022/02/14 19:37:46;;;;;;;3.50;1.70;;;;;;;;;;7332306;19;154420;-16
2022/02/14 19:40:17;;;;;;;2.22;1.50;;;;;;;;;;7330781;19;153675;-15
2022/02/14 19:42:53;;;;;;;2.58;1.35;;;;;;;;;;7330760;19;162996;-15
2022/02/14 19:45:25;;;;;;;2.72;1.33;;;;;;;;;;7331525;19;162427;-14
2022/02/14 19:47:58;;;;;;;4.22;1.58;;;;;;;;;;7331694;19;153988;-15
2022/02/14 19:50:29;;;;;;;2.42;1.20;;;;;;;;;;7331881;19;153660;-16
2022/02/14 19:53:03;;;;;;;2.08;1.15;;;;;;;;;;7331359;19;161907;-15
2022/02/14 19:55:35;;;;;;;2.53;1.35;;;;;;;;;;7331387;19;162693;-16
2022/02/14 19:58:07;;;;;;;1.45;1.20;;;;;;;;;;7331674;19;154036;-15
2022/02/14 20:00:38;;;;;;;2.42;1.20;;;;;;;;;;7332999;19;153750;-15
2022/02/14 20:03:09;;;;;;;3.53;1.77;;;;;;;;;;7333221;19;162183;-15
2022/02/14 20:05:41;;;;;;;1.08;0.98;;;;;;;;;;7334430;19;162281;-15
2022/02/14 20:08:16;;;;;;;1.23;1.08;;;;;;;;;;7334400;19;153970;-15
2022/02/14 20:10:48;;;;;;;1.65;0.98;;;;;;;;;;7334114;19;153452;-15
2022/02/14 20:13:20;;;;;;;1.67;1.20;;;;;;;;;;7334097;19;161836;-16
2022/02/14 20:15:51;;;;;;;2.78;1.10;;;;;;;;;;7334432;19;162610;-15
2022/02/14 20:18:22;;;;;;;3.80;1.33;;;;;;;;;;7334585;19;153968;-16
2022/02/14 20:20:54;;;;;;;3.28;1.30;;;;;;;;;;7333519;19;153559;-16
2022/02/14 20:23:28;;;;;;;3.13;1.63;;;;;;;;;;7332506;19;161860;-16
2022/02/14 20:26:00;;;;;;;3.35;1.20;;;;;;;;;;7335398;19;162636;-16
2022/02/14 20:28:31;;;;;;;2.67;1.25;;;;;;;;;;7332428;19;154136;-14
2022/02/14 20:31:02;;;;;;;1.95;1.10;;;;;;;;;;7334240;19;153519;-16
2022/02/14 20:33:34;;;;;;;3.17;1.20;;;;;;;;;;7334172;19;162344;-15
2022/02/14 20:36:05;;;;;;;1.80;1.27;;;;;;;;;;7334500;19;162389;-15
2022/02/14 20:38:39;;;;;;;1.73;1.25;;;;;;;;;;7334583;19;154090;-14
2022/02/14 20:41:11;;;;;;;1.67;1.00;;;;;;;;;;7333941;19;153515;-16
2022/02/14 20:43:43;;;;;;;1.38;1.25;;;;;;;;;;7332030;19;161936;-13
2022/02/14 20:46:14;;;;;;;2.10;1.00;;;;;;;;;;7333625;19;162533;-15
2022/02/14 20:48:46;;;;;;;2.13;1.23;;;;;;;;;;7333796;19;154705;-15
2022/02/14 20:51:17;;;;;;;3.00;1.65;;;;;;;;;;7333772;19;153521;-15
2022/02/14 20:53:51;;;;;;;4.53;1.60;;;;;;;;;;7332612;19;161877;-14
2022/02/14 20:56:22;;;;;;;2.10;1.55;;;;;;;;;;7333671;19;162575;-14
2022/02/14 20:58:53;;;;;;;1.40;1.30;;;;;;;;;;7330314;19;153987;-15
2022/02/14 21:01:25;;;;;;;2.83;1.42;;;;;;;;;;7330045;19;154256;-15
2022/02/14 21:03:57;;;;;;;3.67;1.67;;;;;;;;;;7331463;19;161884;-16
2022/02/14 21:06:28;;;;;;;3.00;1.70;;;;;;;;;;7332038;19;162303;-15
2022/02/14 21:09:02;;;;;;;3.28;1.48;;;;;;;;;;7331907;19;154054;-14
2022/02/14 21:11:33;;;;;;;4.00;1.77;;;;;;;;;;7330286;19;153860;-15
2022/02/14 21:14:05;;;;;;;3.45;1.60;;;;;;;;;;7332852;19;161729;-14
2022/02/14 21:16:36;;;;;;;3.72;1.90;;;;;;;;;;7329763;19;162305;-14
2022/02/14 21:19:08;;;;;;;25.63;13.50;;;;;;;;;;7333807;19;153930;-14
2022/02/14 21:21:42;;;;;;;17.83;9.38;;;;;;;;;;7333617;19;153677;-15
2022/02/14 21:24:16;;;;;;;12.40;7.18;;;;;;;;;;7328770;19;161940;-14
2022/02/14 21:27:00;;;;;;;11.68;6.43;;;;;;;;;;7330665;19;162383;-15
2022/02/14 21:29:31;;;;;;;11.93;7.00;;;;;;;;;;7330007;19;153991;-21
2022/02/14 21:32:02;;;;;;;10.77;6.15;;;;;;;;;;7333680;19;153680;-15
2022/02/14 21:34:35;;;;;;;8.32;5.72;;;;;;;;;;7328289;19;161894;-15
2022/02/14 21:37:08;;;;;;;8.95;5.53;;;;;;;;;;7331561;19;162400;-14
2022/02/14 21:39:42;;;;;;;11.52;5.68;;;;;;;;;;7332111;19;153964;-14
2022/02/14 21:42:13;;;;;;;12.63;6.50;;;;;;;;;;7337536;19;153509;-14
2022/02/14 21:44:47;;;;;;;10.82;5.85;;;;;;;;;;7334073;19;162122;-14
2022/02/14 21:47:18;;;;;;;10.23;6.22;;;;;;;;;;7334289;19;162482;-16
2022/02/14 21:49:50;;;;;;;14.40;7.05;;;;;;;;;;7329705;19;154046;-15
2022/02/14 21:52:21;;;;;;;11.27;6.10;;;;;;;;;;7339646;19;153447;-16
2022/02/14 21:54:56;;;;;;;10.38;6.03;;;;;;;;;;7334921;19;162191;-16
2022/02/14 21:57:29;;;;;;;11.43;6.35;;;;;;;;;;7336625;19;162380;-14
2022/02/14 22:00:01;;;;;;;9.40;5.82;;;;;;;;;;7336285;19;153990;-16
2022/02/14 22:02:37;;;;;;;9.25;5.75;;;;;;;;;;7335894;19;153516;-14
2022/02/14 22:07:53;;;;;;;10.15;6.43;;;;;;;;;;7334620;19;162329;-15
2022/02/14 22:10:27;;;;;;;9.60;6.00;;;;;;;;;;7334332;19;153997;-16
2022/02/14 22:12:58;;;;;;;7.90;5.22;;;;;;;;;;7337499;19;153808;-16
2022/02/14 22:15:29;;;;;;;9.88;5.72;;;;;;;;;;7334433;19;161860;-15
2022/02/14 22:18:00;;;;;;;9.07;5.18;;;;;;;;;;7334319;19;162359;-16
2022/02/14 22:20:32;;;;;;;8.90;5.30;;;;;;;;;;7334703;19;154257;-15
2022/02/14 22:23:04;;;;;;;7.97;5.00;;;;;;;;;;7334346;19;153863;-15
2022/02/14 22:25:39;;;;;;;9.10;5.73;;;;;;;;;;7334051;19;161984;-16
2022/02/14 22:28:10;;;;;;;9.07;5.55;;;;;;;;;;7337172;19;162537;-15
2022/02/14 22:30:41;;;;;;;9.27;5.40;;;;;;;;;;7334113;19;153931;-15
2022/02/14 22:33:13;;;;;;;9.90;5.25;;;;;;;;;;7333427;19;154113;-16
2022/02/14 22:35:46;;;;;;;10.15;5.75;;;;;;;;;;7333380;19;161815;-15
2022/02/14 22:38:17;;;;;;;8.25;4.88;;;;;;;;;;7333957;19;162510;-15
2022/02/14 22:40:51;;;;;;;7.68;4.90;;;;;;;;;;7336481;19;154255;-15
2022/02/14 22:43:23;;;;;;;7.05;4.65;;;;;;;;;;7336682;19;153951;-15
2022/02/14 22:45:55;;;;;;;8.88;5.03;;;;;;;;;;7334488;19;161777;-15
2022/02/14 22:48:27;;;;;;;7.07;4.82;;;;;;;;;;7336072;19;162386;-15
2022/02/14 22:50:58;;;;;;;8.73;5.22;;;;;;;;;;7335243;19;154015;-15
2022/02/14 22:53:29;;;;;;;8.65;5.22;;;;;;;;;;7336606;19;153523;-15
2022/02/14 22:56:03;;;;;;;7.55;4.40;;;;;;;;;;7335823;19;162134;-15
2022/02/14 22:58:36;;;;;;;8.48;4.97;;;;;;;;;;7335606;19;162386;-16
2022/02/14 23:01:08;;;;;;;6.70;4.68;;;;;;;;;;7334894;19;154034;-15
2022/02/14 23:03:36;;;;;;;8.15;4.85;;;;;;;;;;7335611;19;153680;-16
2022/02/14 23:06:09;;;;;;;7.60;4.60;;;;;;;;;;7334009;19;161830;-15
2022/02/14 23:14:12;;;;;;;8.20;4.80;;;;;;;;;;7336129;19;153245;-15
2022/02/14 23:16:46;;;;;;;7.20;4.40;;;;;;;;;;7334193;19;161933;-15
2022/02/14 23:19:19;;;;;;;7.90;4.43;;;;;;;;;;7335426;19;162590;-16
2022/02/14 23:21:50;;;;;;;6.78;4.07;;;;;;;;;;7332465;19;153962;-15
2022/02/14 23:24:21;;;;;;;6.57;4.30;;;;;;;;;;7332365;19;153647;-15
2022/02/14 23:26:55;;;;;;;8.48;4.82;;;;;;;;;;7330295;19;161982;-15
2022/02/14 23:29:26;;;;;;;7.70;4.47;;;;;;;;;;7329523;19;162564;-15
2022/02/14 23:31:57;;;;;;;7.95;4.90;;;;;;;;;;7328901;19;154427;-15
2022/02/14 23:34:29;;;;;;;6.60;4.25;;;;;;;;;;7333743;19;153798;-15
2022/02/14 23:37:00;;;;;;;8.20;4.80;;;;;;;;;;7330630;19;162307;-15
2022/02/14 23:39:31;;;;;;;7.63;4.20;;;;;;;;;;7329957;19;162467;-15
2022/02/14 23:42:06;;;;;;;5.40;4.00;;;;;;;;;;7328053;19;155299;-15
2022/02/14 23:44:37;;;;;;;6.47;4.28;;;;;;;;;;7329157;19;153771;-16
2022/02/14 23:47:09;;;;;;;7.82;4.57;;;;;;;;;;7328285;19;161920;-15
2022/02/14 23:49:40;;;;;;;6.90;5.10;;;;;;;;;;7330664;19;162621;-15
2022/02/14 23:52:12;;;;;;;7.03;4.30;;;;;;;;;;7331719;19;153938;-15
2022/02/14 23:54:43;;;;;;;6.10;3.85;;;;;;;;;;7330065;19;153513;-15
2022/02/14 23:57:17;;;;;;;5.80;3.97;;;;;;;;;;7333107;19;162119;-15
2022/02/14 23:59:50;;;;;;;6.75;3.33;;;;;;;;;;7332300;19;162735;-14
